Bookmark and Share
Track history (hours):
 

La Porsche

Last reported at 2014-Apr-04 04:23 UTC. Time now 2014-Apr-24 03:49 UTC.
Position N 50°52' W 127°52'.
Warning: this ship's position is 19 days out of date.

Length 22 m; draft 3 m.

Type: Fishing. MMSI: 316001649.

NotesDate/timePositionNaut miles runAvg speedWind from/ knotsBaromVisibWave heightAir tempDewpointWater temp
2014-Apr-04 04:23N 50°52' W 127°52'7 8.4
2014-Apr-04 03:33N 50°50' W 127°41'10 7.6
2014-Apr-04 02:17N 50°45' W 127°28'1 0.1
2014-Apr-02 23:33N 50°43' W 127°28'0 0.0
2014-Apr-02 22:33N 50°43' W 127°28'1 0.6
2014-Apr-02 20:33N 50°43' W 127°29'5 4.7
2014-Apr-02 19:33N 50°45' W 127°23'9 7.9
2014-Apr-02 18:27N 50°39' W 127°12'18 9.2
2014-Apr-02 16:29N 50°33' W 126°46'57 7.0
2014-Apr-02 08:26N 50°13' W 125°22'1311.0
2014-Apr-02 07:15N 50°02' W 125°13'810.8
2014-Apr-02 06:33N 49°56' W 125°05'9 9.2
2014-Apr-02 05:33N 49°50' W 124°54'10 9.1
2014-Apr-02 04:30N 49°44' W 124°43'9 9.7
2014-Apr-02 03:33N 49°39' W 124°32'9 9.1
2014-Apr-02 02:33N 49°34' W 124°20'9 9.3
2014-Apr-02 01:33N 49°29' W 124°08'9 9.1
2014-Apr-02 00:33N 49°23' W 123°56'9 9.4
2014-Apr-01 23:33N 49°18' W 123°45'10 9.7
2014-Apr-01 22:33N 49°12' W 123°33'9 9.2
2014-Apr-01 21:33N 49°07' W 123°21'9 9.3
2014-Apr-01 20:33N 49°05' W 123°07'0 0.4
2014-Apr-01 19:33N 49°05' W 123°06'0 0.0
2014-Apr-01 18:33N 49°05' W 123°06'0 0.0
2014-Apr-01 17:33N 49°05' W 123°06'1 1.0
2014-Apr-01 16:33N 49°05' W 123°08'5 5.2
2014-Apr-01 15:34N 49°09' W 123°02'5 5.0
2014-Apr-01 14:33N 49°11' W 122°55'0 0.0
2014-Apr-01 13:33N 49°11' W 122°55'0 0.0
2014-Apr-01 12:33N 49°11' W 122°55'0 0.0
2014-Apr-01 11:33N 49°11' W 122°55'0 0.0
2014-Apr-01 10:33N 49°11' W 122°55'0 0.0
2014-Apr-01 09:33N 49°11' W 122°55'0 0.0
2014-Apr-01 08:33N 49°11' W 122°55'0 0.0
2014-Apr-01 07:33N 49°11' W 122°55'0 0.0
2014-Apr-01 06:33N 49°11' W 122°55'0 0.0
2014-Apr-01 05:33N 49°11' W 122°55'0 0.0
2014-Apr-01 04:33N 49°11' W 122°55'0 0.0
2014-Apr-01 03:33N 49°11' W 122°55'0 0.0
2014-Apr-01 02:33N 49°11' W 122°55'0 0.0
2014-Apr-01 01:33N 49°11' W 122°55'0 0.0
2014-Apr-01 00:33N 49°11' W 122°55'0 0.0
2014-Mar-31 23:33N 49°11' W 122°55'0 0.0
2014-Mar-31 22:33N 49°11' W 122°55'0 0.0
2014-Mar-31 21:33N 49°11' W 122°55'0 0.0
2014-Mar-31 20:33N 49°11' W 122°55'0 0.0
2014-Mar-31 19:33N 49°11' W 122°55'0 0.0
2014-Mar-31 18:33N 49°11' W 122°55'0 0.0
2014-Mar-31 17:33N 49°11' W 122°55'0 0.0
2014-Mar-31 16:33N 49°11' W 122°55'0 0.0
2014-Mar-31 15:33N 49°11' W 122°55'0 0.0
2014-Mar-31 14:33N 49°11' W 122°55'0 0.0
2014-Mar-31 13:33N 49°11' W 122°55'0 0.0
2014-Mar-31 12:33N 49°11' W 122°55'0 0.0
2014-Mar-31 11:33N 49°11' W 122°55'0 0.0
2014-Mar-31 10:33N 49°11' W 122°55'0 0.0
2014-Mar-31 09:33N 49°11' W 122°55'0 0.0
2014-Mar-31 08:33N 49°11' W 122°55'0 0.0
2014-Mar-31 07:33N 49°11' W 122°55'0 0.0
2014-Mar-31 06:33N 49°11' W 122°55'0 0.0
2014-Mar-31 05:33N 49°11' W 122°55'0 0.0
2014-Mar-31 04:33N 49°11' W 122°55'0 0.0
2014-Mar-31 03:33N 49°11' W 122°55'0 0.0
2014-Mar-31 02:33N 49°11' W 122°55'0 0.0
2014-Mar-31 01:33N 49°11' W 122°55'0 0.0
2014-Mar-31 00:33N 49°11' W 122°55'0 0.0
2014-Mar-30 23:33N 49°11' W 122°55'0 0.0
2014-Mar-30 22:33N 49°11' W 122°55'0 0.0
2014-Mar-30 21:33N 49°11' W 122°55'0 0.0
2014-Mar-30 20:33N 49°11' W 122°55'0 0.0
2014-Mar-30 19:33N 49°11' W 122°55'0 0.0
2014-Mar-30 18:33N 49°11' W 122°55'0 0.0
2014-Mar-30 17:33N 49°11' W 122°55'0 0.0
2014-Mar-30 16:33N 49°11' W 122°55'0 0.0
2014-Mar-30 15:33N 49°11' W 122°55'0 0.0
2014-Mar-30 14:33N 49°11' W 122°55'0 0.0
2014-Mar-30 13:33N 49°11' W 122°55'0 0.0
2014-Mar-30 12:33N 49°11' W 122°55'0 0.0
2014-Mar-30 11:33N 49°11' W 122°55'0 0.0
2014-Mar-30 10:33N 49°11' W 122°55'0 0.0
2014-Mar-30 09:33N 49°11' W 122°55'0 0.0
2014-Mar-30 08:33N 49°11' W 122°55'0 0.0
2014-Mar-30 07:33N 49°11' W 122°55'0 0.0
2014-Mar-30 06:33N 49°11' W 122°55'0 0.0
2014-Mar-30 05:33N 49°11' W 122°55'0 0.0
2014-Mar-30 04:33N 49°11' W 122°55'0 0.0
2014-Mar-30 03:33N 49°11' W 122°55'0 0.0
2014-Mar-30 02:33N 49°11' W 122°55'0 0.0
2014-Mar-30 01:33N 49°11' W 122°55'0 0.0
2014-Mar-30 00:33N 49°11' W 122°55'0 0.0
2014-Mar-29 23:33N 49°11' W 122°55'0 0.0
2014-Mar-29 22:33N 49°11' W 122°55'0 0.0
2014-Mar-29 21:33N 49°11' W 122°55'0 0.0
2014-Mar-29 20:33N 49°11' W 122°55'0 0.0
2014-Mar-29 19:33N 49°11' W 122°55'0 0.0
2014-Mar-29 18:33N 49°11' W 122°55'0 0.0
2014-Mar-29 17:33N 49°11' W 122°55'0 0.0
2014-Mar-29 16:33N 49°11' W 122°55'0 0.0
2014-Mar-29 15:33N 49°11' W 122°55'0 0.0
2014-Mar-29 14:33N 49°11' W 122°55'0 0.0
2014-Mar-29 13:33N 49°11' W 122°55'0 0.0
2014-Mar-29 12:33N 49°11' W 122°55'0 0.0
2014-Mar-29 11:33N 49°11' W 122°55'0 0.0
2014-Mar-29 10:33N 49°11' W 122°55'0 0.0
2014-Mar-29 09:33N 49°11' W 122°55'0 0.0
2014-Mar-29 08:33N 49°11' W 122°55'0 0.0
2014-Mar-29 07:33N 49°11' W 122°55'0 0.0
2014-Mar-29 06:33N 49°11' W 122°55'0 0.0
2014-Mar-29 05:33N 49°11' W 122°55'0 0.0
2014-Mar-29 04:33N 49°11' W 122°55'0 0.0
2014-Mar-29 03:33N 49°11' W 122°55'0 0.0
2014-Mar-29 02:33N 49°11' W 122°55'0 0.0
2014-Mar-29 01:33N 49°11' W 122°55'0 0.0
2014-Mar-29 00:33N 49°11' W 122°55'0 0.0
2014-Mar-28 23:33N 49°11' W 122°55'0 0.0
2014-Mar-28 22:33N 49°11' W 122°55'0 0.0
2014-Mar-28 21:33N 49°11' W 122°55'0 0.0
2014-Mar-28 20:33N 49°11' W 122°55'0 0.0
2014-Mar-28 19:33N 49°11' W 122°55'0 0.0
2014-Mar-28 18:33N 49°11' W 122°55'0 0.0
2014-Mar-28 17:33N 49°11' W 122°55'0 0.0
2014-Mar-28 16:33N 49°11' W 122°55'0 0.0
2014-Mar-28 15:33N 49°11' W 122°55'0 0.0
2014-Mar-28 14:33N 49°11' W 122°55'0 0.0
2014-Mar-28 13:33N 49°11' W 122°55'0 0.0
2014-Mar-28 12:33N 49°11' W 122°55'0 0.0
2014-Mar-28 11:33N 49°11' W 122°55'0 0.0
2014-Mar-28 10:33N 49°11' W 122°55'0 0.0
2014-Mar-28 09:33N 49°11' W 122°55'0 0.0
2014-Mar-28 08:33N 49°11' W 122°55'0 0.0
2014-Mar-28 07:33N 49°11' W 122°55'0 0.0
2014-Mar-28 06:33N 49°11' W 122°55'0 0.0
2014-Mar-28 05:33N 49°11' W 122°55'0 0.0
2014-Mar-28 04:33N 49°11' W 122°55'0 0.0
2014-Mar-28 03:33N 49°11' W 122°55'0 0.0
2014-Mar-28 02:33N 49°11' W 122°55'0 0.0
2014-Mar-28 01:33N 49°11' W 122°55'0 0.0
2014-Mar-28 00:33N 49°11' W 122°55'0 0.0
2014-Mar-27 23:33N 49°11' W 122°55'0 0.0
2014-Mar-27 22:33N 49°11' W 122°55'0 0.0
2014-Mar-27 21:33N 49°11' W 122°55'0 0.0
2014-Mar-27 20:33N 49°11' W 122°55'0 0.0
2014-Mar-27 19:33N 49°11' W 122°55'0 0.0
2014-Mar-27 18:33N 49°11' W 122°55'0 0.0
2014-Mar-27 17:33N 49°11' W 122°55'0 0.0
2014-Mar-27 16:33N 49°11' W 122°55'0 0.0
2014-Mar-27 15:33N 49°11' W 122°55'0 0.0
2014-Mar-27 14:33N 49°11' W 122°55'0 0.0
2014-Mar-27 13:33N 49°11' W 122°55'0 0.0
2014-Mar-27 12:33N 49°11' W 122°55'0 0.0
2014-Mar-27 11:33N 49°11' W 122°55'0 0.0
2014-Mar-27 10:33N 49°11' W 122°55'0 0.0
2014-Mar-27 09:33N 49°11' W 122°55'0 0.0
2014-Mar-27 08:33N 49°11' W 122°55'0 0.0
2014-Mar-27 07:33N 49°11' W 122°55'0 0.0
2014-Mar-27 06:33N 49°11' W 122°55'0 0.0
2014-Mar-27 05:33N 49°11' W 122°55'0 0.0
2014-Mar-27 04:33N 49°11' W 122°55'0 0.0
2014-Mar-27 03:33N 49°11' W 122°55'0 0.0
2014-Mar-27 02:33N 49°11' W 122°55'0 0.0
2014-Mar-27 01:34N 49°11' W 122°55'0 0.0
2014-Mar-27 00:33N 49°11' W 122°55'0 0.0
2014-Mar-26 23:33N 49°11' W 122°55'0 0.0
2014-Mar-26 20:33N 49°11' W 122°55'0 0.0
2014-Mar-26 19:33N 49°11' W 122°55'0 0.0
2014-Mar-26 17:33N 49°11' W 122°55'0 0.0
2014-Mar-26 16:33N 49°11' W 122°55'0 0.0
2014-Mar-26 15:33N 49°11' W 122°55'0 0.0
2014-Mar-26 14:33N 49°11' W 122°55'0 0.0
2014-Mar-26 13:33N 49°11' W 122°55'0 0.0
2014-Mar-26 12:33N 49°11' W 122°55'0 0.0
2014-Mar-26 11:33N 49°11' W 122°55'0 0.0
2014-Mar-26 10:33N 49°11' W 122°55'0 0.0
2014-Mar-26 09:33N 49°11' W 122°55'0 0.0
2014-Mar-26 08:33N 49°11' W 122°55'0 0.0
2014-Mar-26 07:33N 49°11' W 122°55'0 0.0
2014-Mar-26 00:33N 49°11' W 122°55'0 0.0
2014-Mar-25 23:33N 49°11' W 122°55'0 0.0
2014-Mar-25 22:33N 49°11' W 122°55'0 0.0
2014-Mar-25 21:33N 49°11' W 122°55'0 0.0
2014-Mar-25 20:33N 49°11' W 122°55'0 0.0
2014-Mar-25 19:33N 49°11' W 122°55'0 0.0
2014-Mar-25 18:33N 49°11' W 122°55'0 0.0
2014-Mar-25 17:33N 49°11' W 122°55'0 0.0
2014-Mar-25 16:33N 49°11' W 122°55'0 0.0
2014-Mar-25 15:33N 49°11' W 122°55'0 0.0
2014-Mar-25 14:33N 49°11' W 122°55'0 0.0
2014-Mar-25 13:33N 49°11' W 122°55'0 0.0
2014-Mar-25 12:33N 49°11' W 122°55'0 0.0
2014-Mar-25 11:33N 49°11' W 122°55'0 0.0
2014-Mar-25 10:33N 49°11' W 122°55'0 0.0
2014-Mar-25 09:33N 49°11' W 122°55'0 0.0
2014-Mar-25 08:33N 49°11' W 122°55'0 0.0
2014-Mar-25 07:33N 49°11' W 122°55'0 0.0
2014-Mar-25 06:33N 49°11' W 122°55'0 0.0
2014-Mar-25 05:33N 49°11' W 122°55'0 0.0
2014-Mar-25 04:33N 49°11' W 122°55'  

Dump ship's entire track history

sailing weather and tide predictions

La Porsche — VY9305 — position and weather